sensor_id;sensor_type;location;lat;lon;timestamp;temperature;humidity
37276;DHT22;23166;51.150;21.620;2022-07-22T00:01:28;17.80;99.90
37276;DHT22;23166;51.150;21.620;2022-07-22T00:03:54;17.80;99.90
37276;DHT22;23166;51.150;21.620;2022-07-22T00:06:20;17.80;99.90
37276;DHT22;23166;51.150;21.620;2022-07-22T00:08:47;17.70;99.90
37276;DHT22;23166;51.150;21.620;2022-07-22T00:11:13;17.70;99.90
37276;DHT22;23166;51.150;21.620;2022-07-22T00:13:39;17.70;99.90
37276;DHT22;23166;51.150;21.620;2022-07-22T00:16:05;17.60;99.90
37276;DHT22;23166;51.150;21.620;2022-07-22T00:18:32;17.60;99.90
37276;DHT22;23166;51.150;21.620;2022-07-22T00:20:59;17.60;99.90
37276;DHT22;23166;51.150;21.620;2022-07-22T00:23:25;17.50;99.90
37276;DHT22;23166;51.150;21.620;2022-07-22T00:25:51;17.60;99.90
37276;DHT22;23166;51.150;21.620;2022-07-22T00:28:19;17.50;99.90
37276;DHT22;23166;51.150;21.620;2022-07-22T00:30:45;17.50;99.90
37276;DHT22;23166;51.150;21.620;2022-07-22T00:33:11;17.50;99.90
37276;DHT22;23166;51.150;21.620;2022-07-22T00:35:37;17.40;99.90
37276;DHT22;23166;51.150;21.620;2022-07-22T00:38:04;17.40;99.90
37276;DHT22;23166;51.150;21.620;2022-07-22T00:40:30;17.40;99.90
37276;DHT22;23166;51.150;21.620;2022-07-22T00:42:56;17.30;99.90
37276;DHT22;23166;51.150;21.620;2022-07-22T00:45:22;17.30;99.90
37276;DHT22;23166;51.150;21.620;2022-07-22T00:47:48;17.20;99.90
37276;DHT22;23166;51.150;21.620;2022-07-22T00:50:14;17.20;99.90
37276;DHT22;23166;51.150;21.620;2022-07-22T00:52:41;17.20;99.90
37276;DHT22;23166;51.150;21.620;2022-07-22T00:55:07;17.20;99.90
37276;DHT22;23166;51.150;21.620;2022-07-22T00:57:34;17.10;99.90
37276;DHT22;23166;51.150;21.620;2022-07-22T01:00:00;17.10;99.90
37276;DHT22;23166;51.150;21.620;2022-07-22T01:02:26;17.10;99.90
37276;DHT22;23166;51.150;21.620;2022-07-22T01:04:52;17.10;99.90
37276;DHT22;23166;51.150;21.620;2022-07-22T01:07:18;17.00;99.90
37276;DHT22;23166;51.150;21.620;2022-07-22T01:09:45;17.00;99.90
37276;DHT22;23166;51.150;21.620;2022-07-22T01:12:11;17.00;99.90
37276;DHT22;23166;51.150;21.620;2022-07-22T01:14:38;17.00;99.90
37276;DHT22;23166;51.150;21.620;2022-07-22T01:17:04;16.90;99.90
37276;DHT22;23166;51.150;21.620;2022-07-22T01:19:30;16.90;99.90
37276;DHT22;23166;51.150;21.620;2022-07-22T01:21:56;16.90;99.90
37276;DHT22;23166;51.150;21.620;2022-07-22T01:24:23;16.90;99.90
37276;DHT22;23166;51.150;21.620;2022-07-22T01:26:49;16.90;99.90
37276;DHT22;23166;51.150;21.620;2022-07-22T01:29:15;16.90;99.90
37276;DHT22;23166;51.150;21.620;2022-07-22T01:31:41;16.90;99.90
37276;DHT22;23166;51.150;21.620;2022-07-22T01:34:07;16.80;99.90
37276;DHT22;23166;51.150;21.620;2022-07-22T01:36:33;16.80;99.90
37276;DHT22;23166;51.150;21.620;2022-07-22T01:38:59;16.80;99.90
37276;DHT22;23166;51.150;21.620;2022-07-22T01:41:26;16.70;99.90
37276;DHT22;23166;51.150;21.620;2022-07-22T01:43:52;16.70;99.90
37276;DHT22;23166;51.150;21.620;2022-07-22T01:46:18;16.70;99.90
37276;DHT22;23166;51.150;21.620;2022-07-22T01:48:44;16.70;99.90
37276;DHT22;23166;51.150;21.620;2022-07-22T01:51:10;16.70;99.90
37276;DHT22;23166;51.150;21.620;2022-07-22T01:53:36;16.60;99.90
37276;DHT22;23166;51.150;21.620;2022-07-22T01:56:03;16.60;99.90
37276;DHT22;23166;51.150;21.620;2022-07-22T01:58:29;16.60;99.90
37276;DHT22;23166;51.150;21.620;2022-07-22T02:00:56;16.60;99.90
37276;DHT22;23166;51.150;21.620;2022-07-22T02:03:22;16.60;99.90
37276;DHT22;23166;51.150;21.620;2022-07-22T02:05:48;16.60;99.90
37276;DHT22;23166;51.150;21.620;2022-07-22T02:08:15;16.60;99.90
37276;DHT22;23166;51.150;21.620;2022-07-22T02:10:41;16.60;99.90
37276;DHT22;23166;51.150;21.620;2022-07-22T02:13:07;16.60;99.90
37276;DHT22;23166;51.150;21.620;2022-07-22T02:15:33;16.50;99.90
37276;DHT22;23166;51.150;21.620;2022-07-22T02:17:59;16.60;99.90
37276;DHT22;23166;51.150;21.620;2022-07-22T02:20:26;16.50;99.90
37276;DHT22;23166;51.150;21.620;2022-07-22T02:22:52;16.50;99.90
37276;DHT22;23166;51.150;21.620;2022-07-22T02:25:21;16.50;99.90
37276;DHT22;23166;51.150;21.620;2022-07-22T02:27:47;16.40;99.90
37276;DHT22;23166;51.150;21.620;2022-07-22T02:30:13;16.40;99.90
37276;DHT22;23166;51.150;21.620;2022-07-22T02:32:39;16.40;99.90
37276;DHT22;23166;51.150;21.620;2022-07-22T02:35:06;16.40;99.90
37276;DHT22;23166;51.150;21.620;2022-07-22T02:37:32;16.30;99.90
37276;DHT22;23166;51.150;21.620;2022-07-22T02:39:58;16.30;99.90
37276;DHT22;23166;51.150;21.620;2022-07-22T02:42:24;16.20;99.90
37276;DHT22;23166;51.150;21.620;2022-07-22T02:44:50;16.20;99.90
37276;DHT22;23166;51.150;21.620;2022-07-22T02:47:17;16.20;99.90
37276;DHT22;23166;51.150;21.620;2022-07-22T02:49:43;16.20;99.90
37276;DHT22;23166;51.150;21.620;2022-07-22T02:52:09;16.10;99.90
37276;DHT22;23166;51.150;21.620;2022-07-22T02:54:35;16.10;99.90
37276;DHT22;23166;51.150;21.620;2022-07-22T02:57:01;16.00;99.90
37276;DHT22;23166;51.150;21.620;2022-07-22T02:59:27;16.00;99.90
37276;DHT22;23166;51.150;21.620;2022-07-22T03:01:53;15.90;99.90
37276;DHT22;23166;51.150;21.620;2022-07-22T03:04:20;15.90;99.90
37276;DHT22;23166;51.150;21.620;2022-07-22T03:06:46;16.00;99.90
37276;DHT22;23166;51.150;21.620;2022-07-22T03:09:12;16.00;99.90
37276;DHT22;23166;51.150;21.620;2022-07-22T03:11:38;16.00;99.90
37276;DHT22;23166;51.150;21.620;2022-07-22T03:14:04;16.00;99.90
37276;DHT22;23166;51.150;21.620;2022-07-22T03:16:30;16.00;99.90
37276;DHT22;23166;51.150;21.620;2022-07-22T03:18:57;16.00;99.90
37276;DHT22;23166;51.150;21.620;2022-07-22T03:21:26;16.10;99.90
37276;DHT22;23166;51.150;21.620;2022-07-22T03:23:52;16.10;99.90
37276;DHT22;23166;51.150;21.620;2022-07-22T03:26:19;16.20;99.90
37276;DHT22;23166;51.150;21.620;2022-07-22T03:28:46;16.20;99.90
37276;DHT22;23166;51.150;21.620;2022-07-22T03:31:12;16.30;99.90
37276;DHT22;23166;51.150;21.620;2022-07-22T03:33:39;16.30;99.90
37276;DHT22;23166;51.150;21.620;2022-07-22T03:36:05;16.40;99.90
37276;DHT22;23166;51.150;21.620;2022-07-22T03:38:31;16.50;99.90
37276;DHT22;23166;51.150;21.620;2022-07-22T03:40:59;16.70;99.90
37276;DHT22;23166;51.150;21.620;2022-07-22T03:43:25;17.00;99.90
37276;DHT22;23166;51.150;21.620;2022-07-22T03:45:51;17.30;99.90
37276;DHT22;23166;51.150;21.620;2022-07-22T03:48:17;17.80;99.90
37276;DHT22;23166;51.150;21.620;2022-07-22T03:50:43;18.20;99.90
37276;DHT22;23166;51.150;21.620;2022-07-22T03:53:09;18.60;99.90
37276;DHT22;23166;51.150;21.620;2022-07-22T03:55:36;19.00;99.90
37276;DHT22;23166;51.150;21.620;2022-07-22T03:58:02;19.40;99.90
37276;DHT22;23166;51.150;21.620;2022-07-22T04:00:28;19.80;99.90
37276;DHT22;23166;51.150;21.620;2022-07-22T04:02:55;20.20;99.90
37276;DHT22;23166;51.150;21.620;2022-07-22T04:05:21;20.60;99.90
37276;DHT22;23166;51.150;21.620;2022-07-22T04:07:47;20.90;99.90
37276;DHT22;23166;51.150;21.620;2022-07-22T04:10:13;21.20;99.90
37276;DHT22;23166;51.150;21.620;2022-07-22T04:12:39;21.50;99.90
37276;DHT22;23166;51.150;21.620;2022-07-22T04:15:07;21.80;99.90
37276;DHT22;23166;51.150;21.620;2022-07-22T04:17:33;22.10;99.90
37276;DHT22;23166;51.150;21.620;2022-07-22T04:19:59;22.20;99.90
37276;DHT22;23166;51.150;21.620;2022-07-22T04:22:26;22.20;99.90
37276;DHT22;23166;51.150;21.620;2022-07-22T04:24:52;22.10;99.90
37276;DHT22;23166;51.150;21.620;2022-07-22T04:27:19;21.90;99.90
37276;DHT22;23166;51.150;21.620;2022-07-22T04:29:45;21.80;99.90
37276;DHT22;23166;51.150;21.620;2022-07-22T04:32:11;21.70;99.90
37276;DHT22;23166;51.150;21.620;2022-07-22T04:34:37;21.50;99.90
37276;DHT22;23166;51.150;21.620;2022-07-22T04:37:04;21.50;99.90
37276;DHT22;23166;51.150;21.620;2022-07-22T04:39:30;21.40;99.90
37276;DHT22;23166;51.150;21.620;2022-07-22T04:41:56;21.40;99.90
37276;DHT22;23166;51.150;21.620;2022-07-22T04:44:22;21.40;99.90
37276;DHT22;23166;51.150;21.620;2022-07-22T04:46:48;21.30;99.90
37276;DHT22;23166;51.150;21.620;2022-07-22T04:49:14;21.40;99.90
37276;DHT22;23166;51.150;21.620;2022-07-22T04:51:40;21.40;99.90
37276;DHT22;23166;51.150;21.620;2022-07-22T04:54:07;21.40;99.90
37276;DHT22;23166;51.150;21.620;2022-07-22T04:56:33;21.60;99.90
37276;DHT22;23166;51.150;21.620;2022-07-22T04:58:59;21.60;99.90
37276;DHT22;23166;51.150;21.620;2022-07-22T05:01:25;21.70;99.90
37276;DHT22;23166;51.150;21.620;2022-07-22T05:03:51;21.80;99.90
37276;DHT22;23166;51.150;21.620;2022-07-22T05:06:18;22.00;99.90
37276;DHT22;23166;51.150;21.620;2022-07-22T05:08:44;22.10;99.90
37276;DHT22;23166;51.150;21.620;2022-07-22T05:11:10;22.20;99.90
37276;DHT22;23166;51.150;21.620;2022-07-22T05:13:36;22.30;99.90
37276;DHT22;23166;51.150;21.620;2022-07-22T05:16:07;22.40;99.90
37276;DHT22;23166;51.150;21.620;2022-07-22T05:18:30;22.60;99.90
37276;DHT22;23166;51.150;21.620;2022-07-22T05:20:57;22.70;99.90
37276;DHT22;23166;51.150;21.620;2022-07-22T05:23:23;22.90;99.90
37276;DHT22;23166;51.150;21.620;2022-07-22T05:25:49;23.00;99.90
37276;DHT22;23166;51.150;21.620;2022-07-22T05:28:15;23.10;99.90
37276;DHT22;23166;51.150;21.620;2022-07-22T05:30:41;23.30;99.90
37276;DHT22;23166;51.150;21.620;2022-07-22T05:33:07;23.40;99.90
37276;DHT22;23166;51.150;21.620;2022-07-22T05:35:33;23.50;99.90
37276;DHT22;23166;51.150;21.620;2022-07-22T05:38:00;23.70;99.90
37276;DHT22;23166;51.150;21.620;2022-07-22T05:40:26;23.80;99.90
37276;DHT22;23166;51.150;21.620;2022-07-22T05:42:52;24.00;99.90
37276;DHT22;23166;51.150;21.620;2022-07-22T05:45:18;24.20;99.90
37276;DHT22;23166;51.150;21.620;2022-07-22T05:47:44;24.30;99.90
37276;DHT22;23166;51.150;21.620;2022-07-22T05:50:11;24.50;99.90
37276;DHT22;23166;51.150;21.620;2022-07-22T05:52:37;24.60;99.90
37276;DHT22;23166;51.150;21.620;2022-07-22T05:55:06;24.80;99.90
37276;DHT22;23166;51.150;21.620;2022-07-22T05:57:33;24.90;99.90
37276;DHT22;23166;51.150;21.620;2022-07-22T05:59:59;25.10;99.90
37276;DHT22;23166;51.150;21.620;2022-07-22T06:02:25;25.30;99.90
37276;DHT22;23166;51.150;21.620;2022-07-22T06:04:51;25.40;99.90
37276;DHT22;23166;51.150;21.620;2022-07-22T06:07:17;25.70;99.90
37276;DHT22;23166;51.150;21.620;2022-07-22T06:09:43;25.80;99.90
37276;DHT22;23166;51.150;21.620;2022-07-22T06:12:10;26.00;99.90
37276;DHT22;23166;51.150;21.620;2022-07-22T06:14:36;26.20;99.90
37276;DHT22;23166;51.150;21.620;2022-07-22T06:17:03;26.40;99.90
37276;DHT22;23166;51.150;21.620;2022-07-22T06:19:29;26.60;99.90
37276;DHT22;23166;51.150;21.620;2022-07-22T06:21:56;26.70;99.90
37276;DHT22;23166;51.150;21.620;2022-07-22T06:24:22;26.90;99.90
37276;DHT22;23166;51.150;21.620;2022-07-22T06:26:48;27.00;99.90
37276;DHT22;23166;51.150;21.620;2022-07-22T06:29:15;27.20;99.90
37276;DHT22;23166;51.150;21.620;2022-07-22T06:31:41;27.40;99.90
37276;DHT22;23166;51.150;21.620;2022-07-22T06:34:07;27.50;99.90
37276;DHT22;23166;51.150;21.620;2022-07-22T06:36:33;27.60;99.90
37276;DHT22;23166;51.150;21.620;2022-07-22T06:39:00;27.70;99.90
37276;DHT22;23166;51.150;21.620;2022-07-22T06:41:26;27.90;99.60
37276;DHT22;23166;51.150;21.620;2022-07-22T06:43:52;28.00;98.90
37276;DHT22;23166;51.150;21.620;2022-07-22T06:46:18;28.00;98.40
37276;DHT22;23166;51.150;21.620;2022-07-22T06:48:44;28.20;98.40
37276;DHT22;23166;51.150;21.620;2022-07-22T06:51:11;28.30;97.50
37276;DHT22;23166;51.150;21.620;2022-07-22T06:53:37;28.40;97.50
37276;DHT22;23166;51.150;21.620;2022-07-22T06:56:03;28.60;96.80
37276;DHT22;23166;51.150;21.620;2022-07-22T06:58:30;28.70;96.00
37276;DHT22;23166;51.150;21.620;2022-07-22T07:00:56;28.80;95.40
37276;DHT22;23166;51.150;21.620;2022-07-22T07:03:22;28.90;95.00
37276;DHT22;23166;51.150;21.620;2022-07-22T07:05:50;29.00;94.50
37276;DHT22;23166;51.150;21.620;2022-07-22T07:08:16;29.10;93.60
37276;DHT22;23166;51.150;21.620;2022-07-22T07:10:42;29.20;93.80
37276;DHT22;23166;51.150;21.620;2022-07-22T07:13:08;29.30;92.50
37276;DHT22;23166;51.150;21.620;2022-07-22T07:15:35;29.40;92.70
37276;DHT22;23166;51.150;21.620;2022-07-22T07:18:01;29.50;92.80
37276;DHT22;23166;51.150;21.620;2022-07-22T07:20:27;29.60;92.90
37276;DHT22;23166;51.150;21.620;2022-07-22T07:22:53;29.80;92.20
37276;DHT22;23166;51.150;21.620;2022-07-22T07:25:20;29.90;91.50
37276;DHT22;23166;51.150;21.620;2022-07-22T07:27:46;30.10;91.40
37276;DHT22;23166;51.150;21.620;2022-07-22T07:30:12;30.10;90.90
37276;DHT22;23166;51.150;21.620;2022-07-22T07:32:38;30.30;90.90
37276;DHT22;23166;51.150;21.620;2022-07-22T07:35:05;30.30;90.20
37276;DHT22;23166;51.150;21.620;2022-07-22T07:37:32;30.40;88.40
37276;DHT22;23166;51.150;21.620;2022-07-22T07:39:59;30.50;88.40
37276;DHT22;23166;51.150;21.620;2022-07-22T07:42:25;30.50;88.90
37276;DHT22;23166;51.150;21.620;2022-07-22T07:44:51;30.50;88.50
37276;DHT22;23166;51.150;21.620;2022-07-22T07:47:18;30.50;85.40
37276;DHT22;23166;51.150;21.620;2022-07-22T07:49:46;30.60;86.10
37276;DHT22;23166;51.150;21.620;2022-07-22T07:52:13;30.60;85.20
37276;DHT22;23166;51.150;21.620;2022-07-22T07:54:40;30.60;85.00
37276;DHT22;23166;51.150;21.620;2022-07-22T07:57:07;30.60;85.30
37276;DHT22;23166;51.150;21.620;2022-07-22T07:59:33;30.60;84.60
37276;DHT22;23166;51.150;21.620;2022-07-22T08:01:59;30.70;84.50
37276;DHT22;23166;51.150;21.620;2022-07-22T08:04:26;30.70;83.30
37276;DHT22;23166;51.150;21.620;2022-07-22T08:06:52;30.70;81.70
37276;DHT22;23166;51.150;21.620;2022-07-22T08:09:18;30.70;80.80
37276;DHT22;23166;51.150;21.620;2022-07-22T08:11:44;30.70;81.50
37276;DHT22;23166;51.150;21.620;2022-07-22T08:14:10;30.80;81.60
37276;DHT22;23166;51.150;21.620;2022-07-22T08:16:37;30.80;80.30
37276;DHT22;23166;51.150;21.620;2022-07-22T08:19:03;30.90;79.40
37276;DHT22;23166;51.150;21.620;2022-07-22T08:21:29;30.90;79.20
37276;DHT22;23166;51.150;21.620;2022-07-22T08:23:55;30.90;77.60
37276;DHT22;23166;51.150;21.620;2022-07-22T08:26:21;31.00;76.10
37276;DHT22;23166;51.150;21.620;2022-07-22T08:28:47;30.90;75.90
37276;DHT22;23166;51.150;21.620;2022-07-22T08:31:14;31.00;76.70
37276;DHT22;23166;51.150;21.620;2022-07-22T08:33:40;31.00;76.70
37276;DHT22;23166;51.150;21.620;2022-07-22T08:36:06;31.10;76.00
37276;DHT22;23166;51.150;21.620;2022-07-22T08:38:32;31.20;75.90
37276;DHT22;23166;51.150;21.620;2022-07-22T08:40:59;31.30;75.30
37276;DHT22;23166;51.150;21.620;2022-07-22T08:43:26;31.40;74.60
37276;DHT22;23166;51.150;21.620;2022-07-22T08:45:52;31.50;73.70
37276;DHT22;23166;51.150;21.620;2022-07-22T08:48:18;31.60;74.80
37276;DHT22;23166;51.150;21.620;2022-07-22T08:50:45;31.70;73.30
37276;DHT22;23166;51.150;21.620;2022-07-22T08:53:11;31.70;71.90
37276;DHT22;23166;51.150;21.620;2022-07-22T08:55:44;31.90;72.50
37276;DHT22;23166;51.150;21.620;2022-07-22T08:58:11;31.90;73.60
37276;DHT22;23166;51.150;21.620;2022-07-22T09:00:37;32.00;73.90
37276;DHT22;23166;51.150;21.620;2022-07-22T09:05:49;32.30;74.80
37276;DHT22;23166;51.150;21.620;2022-07-22T09:08:16;32.40;73.80
37276;DHT22;23166;51.150;21.620;2022-07-22T09:10:42;32.50;72.90
37276;DHT22;23166;51.150;21.620;2022-07-22T09:13:08;32.50;71.20
37276;DHT22;23166;51.150;21.620;2022-07-22T09:15:36;32.50;69.30
37276;DHT22;23166;51.150;21.620;2022-07-22T09:18:03;32.50;70.60
37276;DHT22;23166;51.150;21.620;2022-07-22T09:20:30;32.60;71.20
37276;DHT22;23166;51.150;21.620;2022-07-22T09:22:56;32.70;71.80
37276;DHT22;23166;51.150;21.620;2022-07-22T09:25:29;32.80;73.10
37276;DHT22;23166;51.150;21.620;2022-07-22T09:30:45;33.10;71.30
37276;DHT22;23166;51.150;21.620;2022-07-22T09:33:05;33.20;70.40
37276;DHT22;23166;51.150;21.620;2022-07-22T09:35:32;33.30;68.50
37276;DHT22;23166;51.150;21.620;2022-07-22T09:37:59;33.30;68.00
37276;DHT22;23166;51.150;21.620;2022-07-22T09:40:31;33.30;67.80
37276;DHT22;23166;51.150;21.620;2022-07-22T09:42:56;33.40;69.70
37276;DHT22;23166;51.150;21.620;2022-07-22T09:45:23;33.50;68.70
37276;DHT22;23166;51.150;21.620;2022-07-22T09:47:50;33.60;68.50
37276;DHT22;23166;51.150;21.620;2022-07-22T09:52:44;33.70;65.80
37276;DHT22;23166;51.150;21.620;2022-07-22T09:55:10;33.70;65.80
37276;DHT22;23166;51.150;21.620;2022-07-22T09:57:36;33.70;66.10
37276;DHT22;23166;51.150;21.620;2022-07-22T10:00:03;33.70;63.30
37276;DHT22;23166;51.150;21.620;2022-07-22T10:02:31;33.70;62.80
37276;DHT22;23166;51.150;21.620;2022-07-22T10:04:59;33.70;63.10
37276;DHT22;23166;51.150;21.620;2022-07-22T10:07:26;33.80;63.70
37276;DHT22;23166;51.150;21.620;2022-07-22T10:09:52;33.80;63.60
37276;DHT22;23166;51.150;21.620;2022-07-22T10:12:19;33.90;64.10
37276;DHT22;23166;51.150;21.620;2022-07-22T10:14:45;33.80;63.90
37276;DHT22;23166;51.150;21.620;2022-07-22T10:17:13;33.80;62.60
37276;DHT22;23166;51.150;21.620;2022-07-22T10:19:39;33.80;62.20
37276;DHT22;23166;51.150;21.620;2022-07-22T10:22:31;33.70;62.70
37276;DHT22;23166;51.150;21.620;2022-07-22T10:24:33;33.70;61.80
37276;DHT22;23166;51.150;21.620;2022-07-22T10:26:59;33.70;62.50
37276;DHT22;23166;51.150;21.620;2022-07-22T10:34:43;33.70;62.10
37276;DHT22;23166;51.150;21.620;2022-07-22T10:43:13;34.10;62.30
37276;DHT22;23166;51.150;21.620;2022-07-22T10:45:13;34.20;62.50
37276;DHT22;23166;51.150;21.620;2022-07-22T10:53:05;34.20;59.00
37276;DHT22;23166;51.150;21.620;2022-07-22T10:55:32;34.20;58.20
37276;DHT22;23166;51.150;21.620;2022-07-22T10:57:58;34.30;58.70
37276;DHT22;23166;51.150;21.620;2022-07-22T11:00:24;34.40;59.30
37276;DHT22;23166;51.150;21.620;2022-07-22T11:02:50;34.40;57.80
37276;DHT22;23166;51.150;21.620;2022-07-22T11:05:29;34.40;58.60
37276;DHT22;23166;51.150;21.620;2022-07-22T11:07:56;34.50;57.60
37276;DHT22;23166;51.150;21.620;2022-07-22T11:10:22;34.50;57.70
37276;DHT22;23166;51.150;21.620;2022-07-22T11:12:48;34.50;57.80
37276;DHT22;23166;51.150;21.620;2022-07-22T11:15:14;34.60;58.10
37276;DHT22;23166;51.150;21.620;2022-07-22T11:17:41;34.50;57.00
37276;DHT22;23166;51.150;21.620;2022-07-22T11:20:08;34.60;57.70
37276;DHT22;23166;51.150;21.620;2022-07-22T11:22:34;34.60;56.80
37276;DHT22;23166;51.150;21.620;2022-07-22T11:25:02;34.70;58.20
37276;DHT22;23166;51.150;21.620;2022-07-22T11:27:28;34.70;58.30
37276;DHT22;23166;51.150;21.620;2022-07-22T11:29:54;34.70;57.80
37276;DHT22;23166;51.150;21.620;2022-07-22T11:32:22;34.80;58.80
37276;DHT22;23166;51.150;21.620;2022-07-22T11:34:49;34.90;59.40
37276;DHT22;23166;51.150;21.620;2022-07-22T11:37:16;35.00;60.20
37276;DHT22;23166;51.150;21.620;2022-07-22T11:39:42;35.20;58.90
37276;DHT22;23166;51.150;21.620;2022-07-22T11:42:08;35.30;58.20
37276;DHT22;23166;51.150;21.620;2022-07-22T11:44:36;35.40;56.50
37276;DHT22;23166;51.150;21.620;2022-07-22T11:47:03;35.40;58.00
37276;DHT22;23166;51.150;21.620;2022-07-22T11:49:30;35.30;55.70
37276;DHT22;23166;51.150;21.620;2022-07-22T11:51:57;35.30;56.50
37276;DHT22;23166;51.150;21.620;2022-07-22T11:54:23;35.30;56.30
37276;DHT22;23166;51.150;21.620;2022-07-22T11:56:49;35.30;56.20
37276;DHT22;23166;51.150;21.620;2022-07-22T11:59:16;35.30;56.80
37276;DHT22;23166;51.150;21.620;2022-07-22T12:01:44;35.30;56.20
37276;DHT22;23166;51.150;21.620;2022-07-22T12:04:11;35.30;55.00
37276;DHT22;23166;51.150;21.620;2022-07-22T12:06:40;35.30;55.70
37276;DHT22;23166;51.150;21.620;2022-07-22T12:11:34;35.40;56.60
37276;DHT22;23166;51.150;21.620;2022-07-22T12:14:05;35.60;57.90
37276;DHT22;23166;51.150;21.620;2022-07-22T12:16:31;35.60;57.20
37276;DHT22;23166;51.150;21.620;2022-07-22T12:19:02;35.80;57.50
37276;DHT22;23166;51.150;21.620;2022-07-22T12:21:27;35.90;55.40
37276;DHT22;23166;51.150;21.620;2022-07-22T12:23:57;36.00;54.70
37276;DHT22;23166;51.150;21.620;2022-07-22T12:29:22;36.20;55.50
37276;DHT22;23166;51.150;21.620;2022-07-22T12:31:50;36.20;55.10
37276;DHT22;23166;51.150;21.620;2022-07-22T12:34:17;36.20;54.40
37276;DHT22;23166;51.150;21.620;2022-07-22T12:36:44;36.00;53.70
37276;DHT22;23166;51.150;21.620;2022-07-22T12:39:14;36.00;55.20
37276;DHT22;23166;51.150;21.620;2022-07-22T12:41:58;36.00;55.40
37276;DHT22;23166;51.150;21.620;2022-07-22T12:44:18;36.10;54.50
37276;DHT22;23166;51.150;21.620;2022-07-22T12:46:45;36.30;54.90
37276;DHT22;23166;51.150;21.620;2022-07-22T12:49:12;36.40;54.60
37276;DHT22;23166;51.150;21.620;2022-07-22T12:51:38;36.60;53.50
37276;DHT22;23166;51.150;21.620;2022-07-22T12:54:04;36.80;55.00
37276;DHT22;23166;51.150;21.620;2022-07-22T12:56:30;37.00;54.80
37276;DHT22;23166;51.150;21.620;2022-07-22T12:58:57;37.20;54.30
37276;DHT22;23166;51.150;21.620;2022-07-22T13:01:23;37.30;54.80
37276;DHT22;23166;51.150;21.620;2022-07-22T13:03:49;37.40;55.40
37276;DHT22;23166;51.150;21.620;2022-07-22T13:06:15;37.60;53.50
37276;DHT22;23166;51.150;21.620;2022-07-22T13:08:41;37.70;53.30
37276;DHT22;23166;51.150;21.620;2022-07-22T13:11:07;37.70;53.20
37276;DHT22;23166;51.150;21.620;2022-07-22T13:13:33;37.70;53.50
37276;DHT22;23166;51.150;21.620;2022-07-22T13:16:00;37.80;52.70
37276;DHT22;23166;51.150;21.620;2022-07-22T13:18:26;37.80;53.80
37276;DHT22;23166;51.150;21.620;2022-07-22T13:20:52;37.80;52.90
37276;DHT22;23166;51.150;21.620;2022-07-22T13:23:18;37.80;52.60
37276;DHT22;23166;51.150;21.620;2022-07-22T13:25:44;37.70;53.50
37276;DHT22;23166;51.150;21.620;2022-07-22T13:28:10;37.60;51.30
37276;DHT22;23166;51.150;21.620;2022-07-22T13:30:36;37.60;53.00
37276;DHT22;23166;51.150;21.620;2022-07-22T13:33:02;37.60;53.50
37276;DHT22;23166;51.150;21.620;2022-07-22T13:35:29;37.60;52.80
37276;DHT22;23166;51.150;21.620;2022-07-22T13:37:55;37.60;52.10
37276;DHT22;23166;51.150;21.620;2022-07-22T13:40:21;37.70;52.80
37276;DHT22;23166;51.150;21.620;2022-07-22T13:42:47;37.60;51.50
37276;DHT22;23166;51.150;21.620;2022-07-22T13:45:13;37.60;52.00
37276;DHT22;23166;51.150;21.620;2022-07-22T13:47:40;37.40;50.70
37276;DHT22;23166;51.150;21.620;2022-07-22T13:50:07;37.30;51.20
37276;DHT22;23166;51.150;21.620;2022-07-22T13:52:34;37.20;50.90
37276;DHT22;23166;51.150;21.620;2022-07-22T13:55:00;37.20;50.80
37276;DHT22;23166;51.150;21.620;2022-07-22T13:57:26;37.10;50.60
37276;DHT22;23166;51.150;21.620;2022-07-22T13:59:52;37.10;50.80
37276;DHT22;23166;51.150;21.620;2022-07-22T14:02:19;37.00;50.70
37276;DHT22;23166;51.150;21.620;2022-07-22T14:04:45;37.00;50.50
37276;DHT22;23166;51.150;21.620;2022-07-22T14:07:11;37.00;50.90
37276;DHT22;23166;51.150;21.620;2022-07-22T14:09:37;37.00;50.70
37276;DHT22;23166;51.150;21.620;2022-07-22T14:12:03;36.90;50.70
37276;DHT22;23166;51.150;21.620;2022-07-22T14:14:30;36.80;50.40
37276;DHT22;23166;51.150;21.620;2022-07-22T14:16:56;36.80;50.80
37276;DHT22;23166;51.150;21.620;2022-07-22T14:19:22;36.70;51.10
37276;DHT22;23166;51.150;21.620;2022-07-22T14:21:48;36.70;51.40
37276;DHT22;23166;51.150;21.620;2022-07-22T14:24:14;36.80;51.30
37276;DHT22;23166;51.150;21.620;2022-07-22T14:26:40;36.80;51.70
37276;DHT22;23166;51.150;21.620;2022-07-22T14:29:08;36.90;52.00
37276;DHT22;23166;51.150;21.620;2022-07-22T14:31:34;37.10;51.20
37276;DHT22;23166;51.150;21.620;2022-07-22T14:34:01;37.20;52.00
37276;DHT22;23166;51.150;21.620;2022-07-22T14:36:27;37.30;51.40
37276;DHT22;23166;51.150;21.620;2022-07-22T14:38:53;37.30;50.90
37276;DHT22;23166;51.150;21.620;2022-07-22T14:41:20;37.40;50.40
37276;DHT22;23166;51.150;21.620;2022-07-22T14:43:46;37.50;51.10
37276;DHT22;23166;51.150;21.620;2022-07-22T14:46:13;37.50;51.00
37276;DHT22;23166;51.150;21.620;2022-07-22T14:48:39;37.30;49.70
37276;DHT22;23166;51.150;21.620;2022-07-22T14:51:05;37.30;51.00
37276;DHT22;23166;51.150;21.620;2022-07-22T14:53:31;37.10;52.10
37276;DHT22;23166;51.150;21.620;2022-07-22T14:55:57;37.00;52.50
37276;DHT22;23166;51.150;21.620;2022-07-22T14:58:24;36.80;53.00
37276;DHT22;23166;51.150;21.620;2022-07-22T15:00:50;36.70;53.10
37276;DHT22;23166;51.150;21.620;2022-07-22T15:03:16;36.60;53.70
37276;DHT22;23166;51.150;21.620;2022-07-22T15:05:42;36.50;53.30
37276;DHT22;23166;51.150;21.620;2022-07-22T15:08:09;36.40;53.70
37276;DHT22;23166;51.150;21.620;2022-07-22T15:10:35;36.30;53.40
37276;DHT22;23166;51.150;21.620;2022-07-22T15:13:01;36.20;53.70
37276;DHT22;23166;51.150;21.620;2022-07-22T15:15:28;36.10;53.90
37276;DHT22;23166;51.150;21.620;2022-07-22T15:17:54;36.00;54.10
37276;DHT22;23166;51.150;21.620;2022-07-22T15:20:20;36.00;53.80
37276;DHT22;23166;51.150;21.620;2022-07-22T15:22:46;35.90;53.90
37276;DHT22;23166;51.150;21.620;2022-07-22T15:25:12;35.80;54.10
37276;DHT22;23166;51.150;21.620;2022-07-22T15:27:38;35.70;54.40
37276;DHT22;23166;51.150;21.620;2022-07-22T15:30:05;35.50;54.70
37276;DHT22;23166;51.150;21.620;2022-07-22T15:32:32;35.30;54.80
37276;DHT22;23166;51.150;21.620;2022-07-22T15:34:58;35.20;54.80
37276;DHT22;23166;51.150;21.620;2022-07-22T15:37:24;35.00;55.30
37276;DHT22;23166;51.150;21.620;2022-07-22T15:39:50;34.80;55.30